Time;durP1;ratioP1;P1;durP2;ratioP2;P2;SDS_P1;SDS_P2;PMS_P1;PMS_P2;Temp;Humidity;BMP_temperature;BMP_pressure;BME280_temperature;BME280_humidity;BME280_pressure;Samples;Min_cycle;Max_cycle;Signal;HPM_P1;HPM_P2
2022/06/17 00:02:06;;;;;;;22.52;15.30;;;;;;;;;;5117537;27;20039;-72
2022/06/17 00:04:32;;;;;;;24.48;15.15;;;;;;;;;;5117552;27;20364;-72
2022/06/17 00:07:07;;;;;;;20.67;14.95;;;16.00;99.90;;;;;;5116773;27;20457;-72
2022/06/17 00:09:35;;;;;;;20.40;14.90;;;16.60;96.90;;;;;;5100523;27;20053;-72
2022/06/17 00:12:03;;;;;;;23.45;16.08;;;16.70;96.30;;;;;;5135798;27;20027;-72
2022/06/17 00:14:33;;;;;;;23.63;15.95;;;16.60;96.80;;;;;;5117117;27;20126;-72
2022/06/17 00:17:07;;;;;;;26.92;18.02;;;16.60;96.00;;;;;;5117275;27;20043;-72
2022/06/17 00:19:32;;;;;;;26.13;16.55;;;17.70;99.90;;;;;;5100273;27;20042;-72
2022/06/17 00:22:00;;;;;;;23.67;15.82;;;;;;;;;;5117564;27;20031;-72
2022/06/17 00:24:33;;;;;;;23.42;16.30;;;17.20;99.90;;;;;;5135439;27;20043;-72
2022/06/17 00:26:59;;;;;;;25.13;15.85;;;;;;;;;;5117264;27;20070;-72
2022/06/17 00:29:28;;;;;;;28.25;15.45;;;16.90;97.00;;;;;;5100029;27;20119;-72
2022/06/17 00:31:54;;;;;;;27.42;16.25;;;17.70;99.90;;;;;;5117040;27;20039;-72
2022/06/17 00:34:20;;;;;;;22.63;15.15;;;;;;;;;;5100107;27;20122;-72
2022/06/17 00:36:46;;;;;;;22.88;15.88;;;;;;;;;;5117118;27;20155;-72
2022/06/17 00:39:20;;;;;;;21.05;15.20;;;16.80;97.00;;;;;;5099859;27;20050;-72
2022/06/17 00:41:50;;;;;;;25.38;15.80;;;16.80;97.10;;;;;;5117064;27;20096;-72
2022/06/17 00:44:31;;;;;;;24.52;15.13;;;16.50;97.20;;;;;;5116982;27;20039;-72
2022/06/17 00:47:02;;;;;;;22.92;14.77;;;16.60;96.10;;;;;;5116690;27;20050;-72
2022/06/17 00:49:42;;;;;;;25.08;15.38;;;;;;;;;;5116684;27;20084;-72
2022/06/17 00:52:22;;;;;;;22.35;15.65;;;16.80;97.40;;;;;;5116911;27;20121;-72
2022/06/17 00:55:03;;;;;;;24.48;16.58;;;16.60;97.30;;;;;;5116369;27;20039;-72
2022/06/17 00:57:38;;;;;;;24.08;16.05;;;17.50;99.90;;;;;;5116442;27;20042;-72
2022/06/17 01:00:04;;;;;;;24.48;15.43;;;17.70;99.90;;;;;;5116385;27;20091;-72
2022/06/17 01:02:35;;;;;;;22.00;15.60;;;15.60;98.60;;;;;;5116683;27;20038;-72
2022/06/17 01:05:03;;;;;;;22.88;16.08;;;;;;;;;;5116637;27;20051;-72
2022/06/17 01:07:34;;;;;;;22.15;15.18;;;16.40;97.40;;;;;;5116569;27;20081;-72
2022/06/17 01:10:08;;;;;;;24.55;15.00;;;16.70;97.60;;;;;;5116212;27;20495;-72
2022/06/17 01:13:02;;;;;;;23.35;14.38;;;16.80;97.90;;;;;;5116356;27;20395;-72
2022/06/17 01:15:31;;;;;;;20.40;15.60;;;16.50;97.50;;;;;;5116267;28;20127;-72
2022/06/17 01:17:58;;;;;;;24.10;14.63;;;;;;;;;;5116158;27;20035;-72
2022/06/17 01:20:26;;;;;;;26.63;15.35;;;16.10;99.90;;;;;;5099251;27;20501;-72
2022/06/17 01:22:55;;;;;;;24.52;14.40;;;16.70;97.60;;;;;;5116215;27;20437;-72
2022/06/17 01:25:21;;;;;;;21.67;15.85;;;;;;;;;;5116191;28;20043;-72
2022/06/17 01:27:53;;;;;;;19.70;14.63;;;16.60;97.60;;;;;;5116253;27;20039;-72
2022/06/17 01:30:31;;;;;;;21.65;15.02;;;16.70;97.90;;;;;;5116158;27;20035;-72
2022/06/17 01:33:15;;;;;;;20.20;14.18;;;15.50;99.90;;;;;;5115890;28;20487;-72
2022/06/17 01:35:50;;;;;;;20.17;14.35;;;16.40;97.70;;;;;;5098833;27;20084;-72
2022/06/17 01:38:17;;;;;;;21.58;14.45;;;;;;;;;;5116205;28;20046;-72
2022/06/17 01:40:43;;;;;;;19.60;13.77;;;;;;;;;;5098869;28;20035;-72
2022/06/17 01:43:13;;;;;;;18.98;13.05;;;16.50;97.70;;;;;;5098834;28;20088;-72
2022/06/17 01:45:42;;;;;;;22.48;13.25;;;16.50;97.70;;;;;;5115967;28;20088;-72
2022/06/17 01:48:09;;;;;;;16.60;12.82;;;15.20;99.90;;;;;;5115886;28;20043;-72
2022/06/17 01:50:38;;;;;;;21.98;14.07;;;16.20;97.70;;;;;;5115966;28;20039;-72
2022/06/17 01:53:09;;;;;;;24.40;14.35;;;16.30;97.80;;;;;;5115567;28;20071;-72
2022/06/17 01:55:41;;;;;;;22.77;14.82;;;16.40;97.80;;;;;;5115959;28;20055;-72
2022/06/17 01:58:16;;;;;;;22.37;14.70;;;16.30;97.80;;;;;;5115712;28;20039;-72
2022/06/17 02:00:42;;;;;;;23.67;14.07;;;;;;;;;;5115933;28;20363;-72
2022/06/17 02:03:14;;;;;;;21.48;13.45;;;17.30;99.90;;;;;;5115691;28;20043;-72
2022/06/17 02:05:44;;;;;;;19.63;14.38;;;16.20;97.90;;;;;;5115635;28;20042;-72
2022/06/17 02:08:10;;;;;;;19.90;13.48;;;15.20;99.90;;;;;;5115658;28;20064;-72
2022/06/17 02:10:39;;;;;;;22.27;14.25;;;16.40;98.00;;;;;;5115639;28;20122;-72
2022/06/17 02:13:07;;;;;;;24.35;14.00;;;16.20;98.00;;;;;;5115252;28;20058;-72
2022/06/17 02:15:34;;;;;;;21.98;14.15;;;17.30;98.80;;;;;;5098806;28;20108;-72
2022/06/17 02:18:04;;;;;;;22.30;13.98;;;16.10;98.00;;;;;;5098781;28;20038;-72
2022/06/17 02:20:30;;;;;;;23.00;14.90;;;;;;;;;;5115504;28;20039;-72
2022/06/17 02:22:57;;;;;;;21.75;14.13;;;16.40;98.20;;;;;;5115700;28;20451;-72
2022/06/17 02:25:27;;;;;;;23.00;15.32;;;16.10;98.20;;;;;;5098832;28;20043;-72
2022/06/17 02:27:56;;;;;;;22.17;14.82;;;16.10;98.30;;;;;;5115503;28;20054;-72
2022/06/17 02:30:23;;;;;;;19.23;14.43;;;;;;;;;;5118267;27;20091;-72
2022/06/17 02:32:50;;;;;;;24.15;15.10;;;;;;;;;;5119301;27;20047;-72
2022/06/17 02:35:38;;;;;;;19.63;14.15;;;16.20;98.70;;;;;;5119133;27;20070;-72
2022/06/17 02:38:05;;;;;;;22.52;13.85;;;16.50;99.90;;;;;;5119139;27;20035;-74
2022/06/17 02:40:31;;;;;;;20.33;13.07;;;;;;;;;;5119177;27;20039;-75
2022/06/17 02:43:04;;;;;;;21.15;13.45;;;16.20;98.20;;;;;;5119209;27;20046;-75
2022/06/17 02:45:34;;;;;;;22.58;13.25;;;14.90;99.90;;;;;;5119070;27;20039;-75
2022/06/17 02:48:01;;;;;;;17.90;13.63;;;15.80;98.10;;;;;;5119403;27;20077;-75
2022/06/17 02:50:28;;;;;;;21.60;13.40;;;16.00;98.40;;;;;;5119212;27;20039;-75
2022/06/17 02:52:55;;;;;;;21.33;13.73;;;15.10;99.90;;;;;;5119134;27;20180;-75
2022/06/17 02:55:28;;;;;;;18.50;13.07;;;17.10;99.90;;;;;;5118731;27;20095;-75
2022/06/17 02:58:02;;;;;;;15.15;11.43;;;16.10;98.50;;;;;;5118788;27;20050;-75
2022/06/17 03:00:28;;;;;;;17.48;12.18;;;;;;;;;;5118744;27;20483;-75
2022/06/17 03:03:00;;;;;;;17.05;11.57;;;16.00;98.40;;;;;;5118830;27;20035;-75
2022/06/17 03:05:30;;;;;;;18.02;12.38;;;16.00;98.40;;;;;;5118742;27;20103;-74
2022/06/17 03:07:57;;;;;;;18.63;12.38;;;16.00;97.80;;;;;;5118763;27;20035;-75
2022/06/17 03:10:37;;;;;;;19.48;12.15;;;15.90;97.30;;;;;;5118546;27;20043;-75
2022/06/17 03:13:30;;;;;;;17.17;11.65;;;16.00;98.60;;;;;;5118474;27;20051;-75
2022/06/17 03:15:59;;;;;;;15.10;10.18;;;16.00;98.30;;;;;;5112157;27;20063;-74
2022/06/17 03:18:27;;;;;;;20.02;11.65;;;15.90;98.30;;;;;;5118705;27;20095;-74
2022/06/17 03:20:54;;;;;;;20.35;12.10;;;15.90;98.30;;;;;;5101692;27;20041;-74
2022/06/17 03:23:29;;;;;;;18.42;12.30;;;16.00;98.30;;;;;;5101296;27;20047;-74
2022/06/17 03:26:03;;;;;;;16.27;12.00;;;16.10;98.20;;;;;;5101286;27;20414;-75
2022/06/17 03:28:53;;;;;;;17.25;11.70;;;17.10;99.90;;;;;;5118539;27;20074;-75
2022/06/17 03:31:25;;;;;;;15.02;11.13;;;;;;;;;;5118162;27;20088;-75
2022/06/17 03:33:51;;;;;;;16.77;11.55;;;;;;;;;;5101124;27;20035;-75
2022/06/17 03:36:47;;;;;;;18.05;12.20;;;16.00;98.60;;;;;;5118169;27;20075;-74
2022/06/17 03:39:36;;;;;;;17.40;11.90;;;15.80;98.50;;;;;;5072858;27;20050;-74
2022/06/17 03:42:08;;;;;;;17.17;11.50;;;16.60;99.30;;;;;;5117974;27;20039;-74
2022/06/17 03:44:43;;;;;;;18.77;11.93;;;15.80;98.30;;;;;;5101154;27;20047;-74
2022/06/17 03:47:25;;;;;;;17.38;11.40;;;15.60;99.10;;;;;;5118239;27;20047;-75
2022/06/17 03:49:57;;;;;;;21.98;11.98;;;15.90;98.00;;;;;;5118373;27;20051;-75
2022/06/17 03:53:00;;;;;;;19.83;12.23;;;16.10;98.50;;;;;;5117923;27;20081;-74
2022/06/17 03:55:27;;;;;;;15.05;10.82;;;;;;;;;;5117589;27;20039;-75
2022/06/17 03:57:55;;;;;;;15.77;11.00;;;16.00;98.10;;;;;;5100675;27;20099;-74
2022/06/17 04:00:21;;;;;;;17.67;11.07;;;;;;;;;;5117628;27;20035;-75
2022/06/17 04:02:50;;;;;;;19.17;12.20;;;16.00;98.10;;;;;;5100525;27;20035;-75
2022/06/17 04:05:17;;;;;;;19.50;10.32;;;16.90;99.90;;;;;;5117401;27;20536;-75
2022/06/17 04:07:43;;;;;;;16.23;10.82;;;15.90;97.50;;;;;;5117397;27;20046;-75
2022/06/17 04:10:23;;;;;;;13.82;10.77;;;17.10;99.90;;;;;;5117420;27;20035;-75
2022/06/17 04:12:51;;;;;;;18.65;10.75;;;16.20;98.20;;;;;;5117818;27;20116;-75
2022/06/17 04:15:17;;;;;;;18.85;11.30;;;;;;;;;;5117340;27;20398;-75
2022/06/17 04:17:46;;;;;;;17.15;11.05;;;15.90;98.00;;;;;;5117054;27;20078;-75
2022/06/17 04:20:40;;;;;;;19.05;11.32;;;16.00;97.50;;;;;;5100515;27;20035;-75
2022/06/17 04:23:19;;;;;;;16.90;10.77;;;16.30;97.90;;;;;;5117310;27;20045;-75
2022/06/17 04:25:56;;;;;;;20.27;10.75;;;16.50;99.90;;;;;;5135556;27;20039;-74
2022/06/17 04:28:33;;;;;;;12.48;10.38;;;16.10;99.90;;;;;;5117221;27;20047;-75
2022/06/17 04:31:03;;;;;;;16.33;10.55;;;16.30;98.30;;;;;;5100288;27;20043;-75
2022/06/17 04:33:47;;;;;;;18.17;11.00;;;15.70;99.90;;;;;;5117439;27;20395;-75
2022/06/17 04:36:25;;;;;;;17.58;11.00;;;16.30;98.30;;;;;;5100641;27;20031;-75
2022/06/17 04:39:06;;;;;;;17.23;10.75;;;16.10;97.90;;;;;;5116789;27;20031;-75
2022/06/17 04:41:36;;;;;;;22.80;10.55;;;16.30;98.30;;;;;;5100130;27;20135;-75
2022/06/17 04:44:04;;;;;;;17.60;10.93;;;16.30;98.30;;;;;;5117014;27;20035;-75
2022/06/17 04:46:54;;;;;;;15.98;11.15;;;16.20;98.70;;;;;;5116991;27;20101;-75
2022/06/17 04:49:26;;;;;;;15.75;11.20;;;16.30;98.40;;;;;;5099973;27;20039;-75
2022/06/17 04:52:01;;;;;;;19.77;11.20;;;;;;;;;;5116525;27;20368;-75
2022/06/17 04:54:28;;;;;;;15.70;10.70;;;16.10;98.40;;;;;;5116377;27;20333;-75
2022/06/17 04:56:58;;;;;;;14.73;10.98;;;16.20;98.40;;;;;;5100363;27;20108;-75
2022/06/17 04:59:36;;;;;;;18.52;10.70;;;16.00;98.20;;;;;;5099589;27;20122;-75
2022/06/17 05:02:11;;;;;;;16.67;11.15;;;;;;;;;;5116505;27;20039;-75
2022/06/17 05:04:37;;;;;;;17.25;11.70;;;;;;;;;;5116749;27;20372;-75
2022/06/17 05:07:03;;;;;;;16.25;11.32;;;;;;;;;;5099485;27;20039;-75
2022/06/17 05:09:32;;;;;;;15.88;10.65;;;;;;;;;;5116346;27;20043;-75
2022/06/17 05:12:05;;;;;;;18.85;11.20;;;16.90;99.90;;;;;;5116391;27;20049;-75
2022/06/17 05:14:50;;;;;;;15.65;11.05;;;16.20;97.90;;;;;;5099050;27;20351;-75
2022/06/17 05:17:16;;;;;;;18.83;11.70;;;;;;;;;;5116600;27;20125;-75
2022/06/17 05:19:42;;;;;;;17.80;12.38;;;;;;;;;;5099128;27;20046;-75
2022/06/17 05:22:37;;;;;;;15.57;11.65;;;16.30;98.80;;;;;;5116046;27;20035;-75
2022/06/17 05:25:05;;;;;;;21.02;11.40;;;;;;;;;;5115215;27;20100;-75
2022/06/17 05:27:31;;;;;;;20.75;11.73;;;;;;;;;;5116032;27;20099;-75
2022/06/17 05:29:56;;;;;;;18.48;12.38;;;15.30;99.90;;;;;;5116224;27;20046;-75
2022/06/17 05:32:22;;;;;;;20.33;12.10;;;;;;;;;;5116363;27;20344;-76
2022/06/17 05:34:49;;;;;;;19.67;12.10;;;;;;;;;;5099021;27;20259;-75
2022/06/17 05:37:15;;;;;;;22.20;12.50;;;;;;;;;;5115879;28;20035;-75
2022/06/17 05:39:41;;;;;;;16.38;11.93;;;;;;;;;;5099087;27;20043;-75
2022/06/17 05:42:09;;;;;;;18.17;12.02;;;16.60;99.90;;;;;;5115890;28;20042;-75
2022/06/17 05:44:35;;;;;;;23.45;12.73;;;;;;;;;;5099369;28;20078;-75
2022/06/17 05:47:01;;;;;;;18.27;12.98;;;;;;;;;;5116029;28;20085;-75
2022/06/17 05:49:27;;;;;;;17.95;12.23;;;;;;;;;;5098799;28;20043;-75
2022/06/17 05:51:53;;;;;;;18.23;12.95;;;;;;;;;;5116161;28;20047;-75
2022/06/17 05:54:19;;;;;;;21.08;12.90;;;;;;;;;;5115552;28;20065;-75
2022/06/17 05:56:45;;;;;;;21.88;12.75;;;;;;;;;;5134121;28;20043;-75
2022/06/17 05:59:12;;;;;;;17.88;12.80;;;;;;;;;;5099264;28;20057;-75
2022/06/17 06:01:37;;;;;;;22.67;13.15;;;16.00;99.90;;;;;;5115688;28;20042;-75
2022/06/17 06:04:04;;;;;;;18.45;12.73;;;17.30;98.30;;;;;;5099818;27;20043;-75
2022/06/17 06:06:30;;;;;;;17.60;12.85;;;;;;;;;;5119792;27;20095;-75
2022/06/17 06:08:56;;;;;;;20.45;12.57;;;;;;;;;;5119576;27;20039;-75
2022/06/17 06:11:22;;;;;;;16.23;12.27;;;;;;;;;;5119902;27;20089;-76
2022/06/17 06:13:48;;;;;;;23.25;13.18;;;17.60;99.90;;;;;;5102701;27;20043;-75
2022/06/17 06:16:15;;;;;;;22.63;12.63;;;17.60;99.90;;;;;;5085739;27;20120;-74
2022/06/17 06:18:41;;;;;;;17.58;12.80;;;18.40;99.90;;;;;;5119540;27;20046;-75
2022/06/17 06:21:07;;;;;;;18.77;13.07;;;;;;;;;;5119691;27;20041;-75
2022/06/17 06:23:34;;;;;;;17.42;13.00;;;17.50;98.70;;;;;;5102449;27;20131;-75
2022/06/17 06:26:00;;;;;;;18.02;13.07;;;17.50;98.10;;;;;;5119631;27;20047;-72
2022/06/17 06:28:27;;;;;;;16.02;12.85;;;17.50;98.80;;;;;;5119781;27;20100;-72
2022/06/17 06:30:54;;;;;;;17.48;13.00;;;;;;;;;;5119400;27;20031;-72
2022/06/17 06:33:20;;;;;;;14.30;12.35;;;16.50;98.00;;;;;;5119318;27;20126;-72
2022/06/17 06:35:46;;;;;;;14.38;12.82;;;;;;;;;;5102305;27;20127;-72
2022/06/17 06:38:13;;;;;;;20.08;12.63;;;;;;;;;;5102361;27;20044;-72
2022/06/17 06:40:39;;;;;;;23.95;12.98;;;18.50;99.90;;;;;;5119596;27;20087;-72
2022/06/17 06:43:20;;;;;;;17.42;12.93;;;16.90;99.90;;;;;;5119183;27;20043;-72
2022/06/17 06:45:48;;;;;;;21.67;12.32;;;17.60;98.80;;;;;;5102300;27;20487;-72
2022/06/17 06:48:16;;;;;;;19.40;13.15;;;17.80;98.70;;;;;;5119274;27;20070;-72
2022/06/17 06:50:43;;;;;;;21.83;12.05;;;17.80;98.40;;;;;;5102277;27;20110;-72
2022/06/17 06:53:09;;;;;;;18.08;12.27;;;18.00;99.90;;;;;;5118861;27;20039;-72
2022/06/17 06:55:35;;;;;;;21.73;12.68;;;;;;;;;;5101742;27;20091;-72
2022/06/17 06:58:13;;;;;;;17.40;12.20;;;18.30;97.70;;;;;;5101898;27;20039;-71
2022/06/17 07:00:44;;;;;;;16.00;12.75;;;18.40;98.60;;;;;;5118709;27;20114;-71
2022/06/17 07:03:11;;;;;;;17.95;12.05;;;18.80;99.90;;;;;;5118826;27;20035;-71
2022/06/17 07:05:40;;;;;;;15.68;11.73;;;18.70;98.50;;;;;;5119030;27;20387;-71
2022/06/17 07:08:06;;;;;;;21.65;12.57;;;;;;;;;;5118759;27;20414;-72
2022/06/17 07:10:35;;;;;;;17.38;11.80;;;19.50;99.90;;;;;;5118720;27;20539;-72
2022/06/17 07:13:01;;;;;;;18.15;11.35;;;;;;;;;;5118651;27;20046;-72
2022/06/17 07:15:27;;;;;;;18.77;12.10;;;18.20;99.90;;;;;;5117997;27;20054;-72
2022/06/17 07:18:04;;;;;;;18.45;11.20;;;18.20;99.90;;;;;;5101829;27;20479;-72
2022/06/17 07:20:37;;;;;;;16.67;11.80;;;18.90;97.50;;;;;;5118629;27;20035;-72
2022/06/17 07:23:07;;;;;;;16.05;11.48;;;19.70;99.90;;;;;;5118320;27;20038;-71
2022/06/17 07:25:34;;;;;;;21.15;11.43;;;18.20;97.90;;;;;;5118161;27;20526;-71
2022/06/17 07:28:00;;;;;;;14.15;11.48;;;;;;;;;;5118162;27;20475;-71
2022/06/17 07:30:28;;;;;;;18.35;11.18;;;19.20;99.90;;;;;;5101401;27;20364;-71
2022/06/17 07:32:54;;;;;;;19.08;11.35;;;;;;;;;;5118060;27;20065;-71
2022/06/17 07:35:20;;;;;;;16.40;11.32;;;18.30;99.90;;;;;;5118069;27;20380;-72
2022/06/17 07:40:32;;;;;;;17.40;11.30;;;19.30;96.60;;;;;;5117900;27;20045;-71
2022/06/17 07:42:58;;;;;;;19.13;11.52;;;18.40;99.90;;;;;;5117935;27;20046;-71
2022/06/17 07:45:25;;;;;;;17.88;11.63;;;19.40;96.50;;;;;;5118139;27;20035;-71
2022/06/17 07:47:53;;;;;;;17.77;11.15;;;19.40;96.70;;;;;;5117988;27;20479;-72
2022/06/17 07:50:23;;;;;;;15.70;10.88;;;19.40;96.60;;;;;;5117864;27;20086;-71
2022/06/17 07:52:49;;;;;;;16.38;10.82;;;;;;;;;;5117737;27;20455;-72
2022/06/17 07:55:15;;;;;;;15.93;10.73;;;;;;;;;;5117653;27;20091;-71
2022/06/17 07:57:43;;;;;;;19.23;12.15;;;19.70;96.50;;;;;;5100620;27;20120;-72
2022/06/17 08:00:20;;;;;;;14.90;10.88;;;20.40;99.80;;;;;;5117609;27;20033;-71
2022/06/17 08:02:46;;;;;;;17.20;11.02;;;;;;;;;;5117571;27;20493;-71
2022/06/17 08:05:12;;;;;;;20.65;10.70;;;20.10;95.50;;;;;;5117804;27;20399;-71
2022/06/17 08:07:38;;;;;;;19.98;10.98;;;20.90;99.20;;;;;;5117605;27;20039;-71
2022/06/17 08:10:04;;;;;;;15.32;9.93;;;21.10;99.00;;;;;;5117759;27;20038;-72
2022/06/17 08:12:30;;;;;;;19.27;10.60;;;;;;;;;;5100432;27;20039;-72
2022/06/17 08:14:56;;;;;;;14.57;9.65;;;19.90;98.40;;;;;;5100144;27;20090;-72
2022/06/17 08:17:23;;;;;;;14.02;9.43;;;20.60;95.00;;;;;;5100447;27;20039;-71
2022/06/17 08:19:51;;;;;;;14.63;9.15;;;;;;;;;;5117361;27;20057;-71
2022/06/17 08:22:19;;;;;;;18.23;9.27;;;21.10;98.10;;;;;;5117055;27;20047;-71
2022/06/17 08:24:44;;;;;;;14.80;8.48;;;21.40;98.00;;;;;;5099975;27;20483;-71
2022/06/17 08:27:10;;;;;;;13.90;8.75;;;;;;;;;;5134656;27;20039;-71
2022/06/17 08:29:36;;;;;;;15.18;9.18;;;20.70;97.60;;;;;;5117396;27;20055;-71
2022/06/17 08:34:46;;;;;;;14.05;8.93;;;21.20;96.50;;;;;;5116862;27;20057;-71
2022/06/17 08:37:14;;;;;;;14.23;8.52;;;19.80;95.60;;;;;;5116929;27;20038;-71
2022/06/17 08:39:41;;;;;;;12.77;8.93;;;20.60;93.60;;;;;;5116931;27;20075;-71
2022/06/17 08:42:19;;;;;;;13.90;8.60;;;20.90;93.10;;;;;;5100096;27;20062;-71
2022/06/17 08:44:57;;;;;;;13.52;9.02;;;21.70;97.60;;;;;;5100005;27;20405;-71
2022/06/17 08:47:52;;;;;;;15.15;9.35;;;20.60;97.30;;;;;;5116906;27;20046;-71
2022/06/17 08:50:39;;;;;;;15.50;8.70;;;20.00;96.70;;;;;;5116665;27;20039;-71
2022/06/17 08:53:05;;;;;;;18.88;9.40;;;20.50;96.60;;;;;;5099231;27;20051;-71
2022/06/17 08:55:46;;;;;;;13.13;8.70;;;21.70;97.00;;;;;;5116473;27;20047;-71
2022/06/17 08:58:24;;;;;;;13.00;8.65;;;21.20;96.90;;;;;;5116421;27;20116;-71
2022/06/17 09:01:03;;;;;;;13.35;8.15;;;20.30;96.60;;;;;;5116453;27;20509;-71
2022/06/17 09:03:59;;;;;;;17.92;9.00;;;20.90;92.50;;;;;;5116369;27;20054;-71
2022/06/17 09:06:52;;;;;;;13.82;8.80;;;20.80;96.60;;;;;;5116668;27;20034;-71
2022/06/17 09:09:33;;;;;;;13.23;8.20;;;21.30;94.00;;;;;;5116301;27;20551;-71
2022/06/17 09:12:14;;;;;;;16.33;9.18;;;21.70;96.80;;;;;;5116397;27;20084;-71
2022/06/17 09:15:01;;;;;;;10.43;7.30;;;22.10;92.40;;;;;;5099093;27;20047;-71
2022/06/17 09:17:32;;;;;;;14.68;7.95;;;21.20;93.00;;;;;;5116072;27;20363;-72
2022/06/17 09:20:03;;;;;;;19.55;7.97;;;21.70;96.40;;;;;;5116033;27;20039;-72
2022/06/17 09:22:34;;;;;;;11.48;8.30;;;21.60;92.60;;;;;;5116059;27;20047;-71
2022/06/17 09:25:05;;;;;;;19.05;7.78;;;21.30;95.80;;;;;;5115933;27;20047;-71
2022/06/17 09:27:40;;;;;;;13.98;8.02;;;22.60;95.80;;;;;;5116341;27;20080;-71
2022/06/17 09:30:17;;;;;;;10.75;7.38;;;22.20;92.20;;;;;;5115885;28;20035;-71
2022/06/17 09:32:46;;;;;;;16.30;8.13;;;22.00;95.10;;;;;;5098930;28;20046;-71
2022/06/17 09:35:20;;;;;;;14.82;8.10;;;22.40;94.90;;;;;;5098799;27;20039;-71
2022/06/17 09:37:57;;;;;;;13.07;8.32;;;23.30;95.00;;;;;;5115666;27;20479;-71
2022/06/17 09:40:35;;;;;;;12.80;7.47;;;23.00;90.90;;;;;;5098885;27;20096;-71
2022/06/17 09:43:17;;;;;;;11.80;7.03;;;22.90;91.70;;;;;;5099160;28;20119;-71
2022/06/17 09:45:58;;;;;;;20.30;7.63;;;22.00;94.20;;;;;;5115877;28;20043;-71
2022/06/17 09:48:33;;;;;;;16.80;7.82;;;22.40;90.80;;;;;;5116053;28;20467;-71
2022/06/17 09:51:06;;;;;;;13.05;7.45;;;23.40;94.40;;;;;;5115755;28;20445;-71
2022/06/17 09:53:41;;;;;;;13.55;7.93;;;22.10;90.00;;;;;;5115855;28;20401;-72
2022/06/17 09:56:42;;;;;;;12.85;6.75;;;23.00;94.20;;;;;;5116105;28;20043;-71
2022/06/17 09:59:20;;;;;;;8.75;5.97;;;22.40;93.50;;;;;;5031482;28;20083;-71
2022/06/17 10:01:47;;;;;;;11.60;5.47;;;23.80;93.50;;;;;;5115767;28;20039;-71
2022/06/17 10:04:15;;;;;;;12.27;5.95;;;24.10;93.00;;;;;;5115581;28;20479;-71
2022/06/17 10:06:41;;;;;;;10.80;5.40;;;;;;;;;;5133931;28;20079;-71
2022/06/17 10:09:19;;;;;;;11.98;6.60;;;24.00;92.50;;;;;;5099192;28;20067;-71
2022/06/17 10:12:23;;;;;;;9.85;6.13;;;23.70;92.20;;;;;;5115842;28;20035;-71
2022/06/17 10:15:25;;;;;;;17.05;7.00;;;24.20;92.20;;;;;;5013979;28;20579;-71
2022/06/17 10:21:24;;;;;;;12.07;6.72;;;23.70;91.80;;;;;;5133764;28;19915;-71
2022/06/17 10:24:08;;;;;;;11.57;6.80;;;24.10;91.90;;;;;;5098581;28;20045;-71
2022/06/17 10:27:00;;;;;;;17.58;7.22;;;23.50;91.70;;;;;;5115579;28;20518;-71
2022/06/17 10:29:38;;;;;;;13.68;7.55;;;23.70;83.40;;;;;;5098447;28;20080;-72
2022/06/17 10:32:04;;;;;;;14.75;7.70;;;24.50;91.50;;;;;;5115744;28;20111;-72
2022/06/17 10:34:37;;;;;;;14.68;7.32;;;24.00;85.50;;;;;;5115347;28;20483;-70
2022/06/17 10:37:05;;;;;;;14.82;6.90;;;24.00;91.40;;;;;;5118755;28;20046;-71
2022/06/17 10:39:33;;;;;;;13.02;7.25;;;23.90;85.50;;;;;;5099311;28;20076;-71
2022/06/17 10:42:00;;;;;;;13.63;7.30;;;24.00;84.40;;;;;;5115438;28;20039;-71
2022/06/17 10:44:28;;;;;;;21.40;7.20;;;23.40;91.00;;;;;;5098278;28;20043;-71
2022/06/17 10:47:16;;;;;;;17.42;6.72;;;24.80;89.60;;;;;;5115165;28;20043;-72
2022/06/17 10:49:53;;;;;;;12.00;7.85;;;23.80;91.00;;;;;;5098147;28;20053;-72
2022/06/17 10:52:24;;;;;;;16.55;7.85;;;23.50;90.90;;;;;;5102054;27;20039;-71
2022/06/17 10:54:53;;;;;;;14.10;7.47;;;23.70;84.90;;;;;;5102186;27;20104;-71
2022/06/17 10:57:25;;;;;;;10.48;7.32;;;23.20;90.90;;;;;;5118832;27;20035;-71
2022/06/17 10:59:51;;;;;;;12.70;6.35;;;23.40;91.00;;;;;;5119013;27;20047;-71
2022/06/17 11:02:28;;;;;;;12.32;6.93;;;23.80;91.10;;;;;;5118791;27;20043;-71
2022/06/17 11:04:58;;;;;;;11.80;6.55;;;24.30;85.20;;;;;;5118763;27;20128;-71
2022/06/17 11:07:48;;;;;;;9.52;6.28;;;23.60;90.90;;;;;;5118551;27;20047;-71
2022/06/17 11:10:13;;;;;;;10.40;6.43;;;23.80;90.80;;;;;;5101641;27;20122;-71
2022/06/17 11:12:52;;;;;;;16.70;6.85;;;24.40;84.30;;;;;;5118311;27;20181;-71
2022/06/17 11:15:28;;;;;;;13.00;6.85;;;25.30;90.40;;;;;;5118381;27;20039;-72
2022/06/17 11:17:58;;;;;;;13.40;5.80;;;25.10;90.30;;;;;;5101478;27;20507;-71
2022/06/17 11:20:30;;;;;;;13.82;6.63;;;24.30;89.70;;;;;;5118789;27;20122;-71
2022/06/17 11:23:02;;;;;;;13.32;6.63;;;25.00;79.90;;;;;;5118353;27;20047;-71
2022/06/17 11:25:31;;;;;;;12.95;5.60;;;25.40;85.20;;;;;;5101344;27;20043;-73
2022/06/17 11:28:26;;;;;;;13.80;5.65;;;25.70;89.30;;;;;;5101419;27;20039;-70
2022/06/17 11:31:09;;;;;;;15.82;6.15;;;25.80;89.10;;;;;;5108832;27;20058;-71
2022/06/17 11:33:53;;;;;;;15.50;5.35;;;25.70;88.50;;;;;;5101105;27;20066;-71
2022/06/17 11:36:34;;;;;;;15.32;5.65;;;25.90;87.90;;;;;;5118399;27;20031;-71
2022/06/17 11:39:33;;;;;;;16.08;5.07;;;26.10;88.10;;;;;;5118713;27;20030;-71
2022/06/17 11:42:20;;;;;;;16.42;5.03;;;25.90;77.80;;;;;;5136392;27;20039;-71
2022/06/17 11:45:00;;;;;;;15.68;5.95;;;25.60;87.60;;;;;;5101138;27;20035;-71
2022/06/17 11:47:29;;;;;;;12.00;5.20;;;26.40;87.10;;;;;;5117876;27;20084;-71
2022/06/17 11:49:59;;;;;;;9.82;5.57;;;25.70;82.00;;;;;;5117822;27;20051;-72
2022/06/17 11:52:32;;;;;;;9.75;4.95;;;26.40;85.90;;;;;;5117755;27;20118;-71
2022/06/17 11:54:58;;;;;;;9.80;5.00;;;25.90;85.30;;;;;;5135896;27;20043;-71
2022/06/17 11:57:29;;;;;;;8.70;5.28;;;26.90;85.90;;;;;;5117671;27;20125;-71
2022/06/17 11:59:59;;;;;;;9.70;5.70;;;26.40;77.30;;;;;;5117643;27;20039;-71
2022/06/17 12:02:26;;;;;;;13.30;5.28;;;27.00;84.80;;;;;;5099454;27;20042;-71
2022/06/17 12:05:05;;;;;;;13.98;5.32;;;26.80;76.00;;;;;;5117479;27;20491;-71
2022/06/17 12:07:49;;;;;;;8.70;5.15;;;26.80;72.90;;;;;;5117420;27;20043;-72
2022/06/17 12:10:46;;;;;;;10.48;4.95;;;26.40;82.10;;;;;;5100237;27;20088;-72
2022/06/17 12:13:36;;;;;;;9.68;5.47;;;26.90;81.80;;;;;;5117193;27;20061;-72
2022/06/17 12:16:11;;;;;;;14.98;5.65;;;27.20;82.30;;;;;;5117214;27;20049;-72
2022/06/17 12:18:45;;;;;;;11.80;4.97;;;27.20;82.10;;;;;;5117161;27;20066;-72
2022/06/17 12:21:13;;;;;;;9.20;4.93;;;26.90;82.10;;;;;;5117279;27;20070;-72
2022/06/17 12:24:00;;;;;;;7.93;4.97;;;26.90;72.20;;;;;;5117352;27;20027;-72
2022/06/17 12:26:26;;;;;;;11.25;4.95;;;;;;;;;;5117027;27;20495;-72
2022/06/17 12:28:58;;;;;;;14.45;5.18;;;27.10;81.30;;;;;;5100138;27;20122;-72
2022/06/17 12:31:45;;;;;;;12.65;5.03;;;26.80;81.40;;;;;;5100557;27;20180;-72
2022/06/17 12:34:22;;;;;;;10.57;5.05;;;27.00;80.90;;;;;;5117203;27;20168;-72
2022/06/17 12:36:55;;;;;;;15.43;5.97;;;27.10;80.70;;;;;;5116887;27;20124;-72
2022/06/17 12:39:31;;;;;;;9.13;5.18;;;26.60;80.30;;;;;;5117226;27;20364;-71
2022/06/17 12:42:04;;;;;;;14.05;5.68;;;26.00;80.00;;;;;;5117079;27;20451;-71
2022/06/17 12:44:42;;;;;;;13.32;5.60;;;26.50;73.80;;;;;;5117050;27;20050;-73
2022/06/17 12:47:17;;;;;;;10.73;5.40;;;26.00;80.40;;;;;;5116900;27;20042;-72
2022/06/17 12:53:19;;;;;;;10.77;4.95;;;26.20;80.60;;;;;;5116966;27;20467;-73
2022/06/17 12:55:57;;;;;;;11.18;5.05;;;25.90;80.70;;;;;;5099638;27;20035;-72
2022/06/17 12:58:34;;;;;;;11.30;4.68;;;26.90;81.40;;;;;;5116596;27;20047;-72
2022/06/17 13:01:09;;;;;;;13.55;4.88;;;26.80;81.50;;;;;;5116500;27;20122;-72
2022/06/17 13:04:01;;;;;;;7.63;5.00;;;26.50;81.00;;;;;;5116787;27;20050;-72
2022/06/17 13:06:38;;;;;;;11.63;5.20;;;26.30;80.80;;;;;;5116455;27;20035;-72
2022/06/17 13:09:30;;;;;;;13.20;4.75;;;27.20;81.20;;;;;;5116681;27;20384;-72
2022/06/17 13:12:18;;;;;;;11.57;5.22;;;26.80;80.90;;;;;;5099335;27;20073;-72
2022/06/17 13:14:57;;;;;;;11.85;4.90;;;26.30;80.60;;;;;;5098660;27;20058;-71
2022/06/17 13:17:47;;;;;;;8.65;4.55;;;27.30;81.20;;;;;;5116233;27;20130;-72
2022/06/17 13:20:37;;;;;;;11.32;4.75;;;26.90;81.20;;;;;;5116416;27;20035;-72
2022/06/17 13:23:13;;;;;;;17.40;5.28;;;27.20;80.90;;;;;;5099421;27;20042;-72
2022/06/17 13:25:48;;;;;;;12.40;5.45;;;27.40;81.10;;;;;;5116231;27;20095;-71
2022/06/17 13:28:24;;;;;;;8.93;5.35;;;27.10;81.50;;;;;;5116036;27;20054;-72
2022/06/17 13:30:56;;;;;;;18.55;5.80;;;27.50;80.40;;;;;;5116030;27;20091;-72
2022/06/17 13:33:36;;;;;;;9.00;5.68;;;27.00;79.80;;;;;;5116319;27;20046;-72